createdAt,value
2023-05-12T00:06:03.750Z,105.79
2023-05-12T00:21:10.170Z,105.47
2023-05-12T00:36:15.949Z,105.60
2023-05-12T00:51:21.743Z,106.66
2023-05-12T01:06:31.432Z,107.36
2023-05-12T01:21:37.266Z,106.83
2023-05-12T01:36:42.916Z,107.30
2023-05-12T01:51:48.490Z,106.79
2023-05-12T02:06:54.273Z,107.42
2023-05-12T02:22:00.105Z,106.95
2023-05-12T02:37:06.287Z,108.07
2023-05-12T02:52:12.132Z,107.63
2023-05-12T03:07:17.810Z,108.22
2023-05-12T03:22:23.524Z,107.72
2023-05-12T03:37:29.348Z,108.22
2023-05-12T03:52:35.116Z,107.41
2023-05-12T04:07:40.740Z,108.38
2023-05-12T04:22:47.807Z,108.36
2023-05-12T04:37:53.940Z,108.27
2023-05-12T04:52:59.469Z,107.82
2023-05-12T05:08:05.329Z,107.49
2023-05-12T05:23:10.928Z,107.53
2023-05-12T05:38:16.611Z,106.08
2023-05-12T05:53:23.519Z,106.25
2023-05-12T06:08:29.254Z,105.99
2023-05-12T06:23:34.976Z,105.20
2023-05-12T06:38:40.821Z,106.06
2023-05-12T06:53:46.589Z,106.14
2023-05-12T07:08:52.266Z,105.84
2023-05-12T07:23:57.776Z,104.92
2023-05-12T07:39:03.474Z,103.70
2023-05-12T07:54:09.971Z,102.96
2023-05-12T08:09:15.673Z,101.93
2023-05-12T08:24:22.248Z,101.00
2023-05-12T08:39:31.268Z,100.63
2023-05-12T08:54:48.553Z,98.34
2023-05-12T09:10:00.548Z,98.27
2023-05-12T09:25:19.076Z,96.83
2023-05-12T09:40:25.008Z,93.94
2023-05-12T09:55:30.615Z,88.70
2023-05-12T10:10:36.565Z,85.07
2023-05-12T10:25:44.171Z,82.01
2023-05-12T10:40:58.385Z,75.28
2023-05-12T10:56:06.783Z,76.80
2023-05-12T11:11:13.717Z,76.05
2023-05-12T11:26:22.643Z,80.43
2023-05-12T11:41:28.539Z,81.74
2023-05-12T11:56:34.173Z,80.03
2023-05-12T12:11:39.809Z,82.42
2023-05-12T12:26:45.378Z,77.24
2023-05-12T12:41:50.956Z,76.54
2023-05-12T12:56:56.896Z,73.71
2023-05-12T13:12:02.471Z,70.23
2023-05-12T13:27:09.499Z,72.19
2023-05-12T13:42:15.280Z,68.30
2023-05-12T13:57:21.060Z,68.32
2023-05-12T14:12:26.580Z,70.40
2023-05-12T14:27:32.163Z,69.85
2023-05-12T14:42:38.316Z,75.84
2023-05-12T14:57:44.551Z,78.79
2023-05-12T15:12:50.231Z,78.18
2023-05-12T15:27:55.925Z,80.42
2023-05-12T15:43:01.454Z,79.78
2023-05-12T15:58:08.510Z,79.30
2023-05-12T16:13:14.854Z,81.80
2023-05-12T16:28:20.443Z,87.41
2023-05-12T16:43:26.051Z,88.04
2023-05-12T16:58:32.549Z,87.88
2023-05-12T17:13:39.245Z,88.96
2023-05-12T17:28:45.147Z,89.38
2023-05-12T17:43:50.897Z,88.44
2023-05-12T17:58:56.503Z,88.46
2023-05-12T18:14:02.743Z,89.97
2023-05-12T18:29:08.397Z,90.66
2023-05-12T18:44:14.146Z,91.95
2023-05-12T18:59:20.070Z,93.40
2023-05-12T19:14:25.702Z,94.62
2023-05-12T19:29:31.308Z,95.37
2023-05-12T19:44:36.870Z,96.55
2023-05-12T19:59:42.584Z,97.43
2023-05-12T20:14:48.175Z,98.35
2023-05-12T20:29:53.818Z,98.84
2023-05-12T20:44:59.501Z,100.14
2023-05-12T21:00:05.813Z,100.08
2023-05-12T21:15:13.234Z,99.99
2023-05-12T21:30:19.003Z,99.98
2023-05-12T21:45:24.748Z,101.14
2023-05-12T22:00:30.381Z,101.99
2023-05-12T22:15:36.280Z,102.99
2023-05-12T22:30:42.223Z,103.63
2023-05-12T22:45:52.240Z,105.60
2023-05-12T23:00:57.966Z,104.94
2023-05-12T23:16:03.617Z,105.31
2023-05-12T23:31:09.697Z,106.96
2023-05-12T23:46:15.274Z,106.95
